createdAt,value
2019-02-14T00:00:49.638Z,101895.89
2019-02-14T00:03:19.047Z,101896.28
2019-02-14T00:05:48.324Z,101903.23
2019-02-14T00:08:17.650Z,101911.27
2019-02-14T00:10:47.098Z,101917.81
2019-02-14T00:13:16.331Z,101918.55
2019-02-14T00:15:45.504Z,101930.29
2019-02-14T00:18:14.894Z,101932.55
2019-02-14T00:20:44.130Z,101934.80
2019-02-14T00:23:13.328Z,101931.48
2019-02-14T00:25:42.603Z,101934.91
2019-02-14T00:28:11.803Z,101935.36
2019-02-14T00:30:40.986Z,101932.04
2019-02-14T00:33:10.590Z,101934.80
2019-02-14T00:35:39.873Z,101947.81
2019-02-14T00:38:10.116Z,101955.59
2019-02-14T00:40:39.384Z,101947.97
2019-02-14T00:43:08.618Z,101959.52
2019-02-14T00:46:28.376Z,101960.08
2019-02-14T00:48:57.749Z,101960.36
2019-02-14T00:51:27.401Z,101968.58
2019-02-14T00:53:56.661Z,101978.98
2019-02-14T00:56:25.879Z,101981.22
2019-02-14T00:58:55.304Z,101973.84
2019-02-14T01:01:24.488Z,101974.52
2019-02-14T01:03:53.951Z,101971.53
2019-02-14T01:06:23.234Z,101968.82
2019-02-14T01:08:52.537Z,101972.20
2019-02-14T01:11:21.763Z,101966.00
2019-02-14T01:13:51.306Z,101979.73
2019-02-14T01:16:20.487Z,101981.46
2019-02-14T01:18:49.724Z,101996.37
2019-02-14T01:21:19.202Z,101993.04
2019-02-14T01:23:48.386Z,102004.06
2019-02-14T01:26:17.585Z,102011.60
2019-02-14T01:28:47.004Z,102014.86
2019-02-14T01:31:16.188Z,102021.59
2019-02-14T01:33:45.414Z,102024.46
2019-02-14T01:36:15.413Z,102030.94
2019-02-14T01:38:44.592Z,102043.49
2019-02-14T01:41:13.808Z,102032.74
2019-02-14T01:43:43.170Z,102020.30
2019-02-14T01:46:12.418Z,102020.34
2019-02-14T01:48:41.637Z,102029.23
2019-02-14T01:51:11.008Z,102030.28
2019-02-14T01:53:40.179Z,102043.49
2019-02-14T01:56:09.408Z,102030.82
2019-02-14T01:58:38.674Z,102032.11
2019-02-14T02:01:07.859Z,102037.29
2019-02-14T02:03:37.098Z,102039.48
2019-02-14T02:06:06.702Z,102051.23
2019-02-14T02:08:35.884Z,102053.70
2019-02-14T02:11:05.797Z,102052.16
2019-02-14T02:13:35.215Z,102056.70
2019-02-14T02:16:04.400Z,102053.36
2019-02-14T02:18:33.697Z,102043.42
2019-02-14T02:21:02.983Z,102056.25
2019-02-14T02:23:32.333Z,102050.31
2019-02-14T02:26:01.540Z,102051.36
2019-02-14T02:28:31.127Z,102046.19
2019-02-14T02:31:00.316Z,102045.67
2019-02-14T02:33:29.524Z,102055.00
2019-02-14T02:36:00.633Z,102056.16
2019-02-14T02:38:29.739Z,102069.89
2019-02-14T02:40:59.038Z,102066.39
2019-02-14T02:43:28.571Z,102056.55
2019-02-14T02:45:58.132Z,102056.55
2019-02-14T02:48:27.362Z,102058.62
2019-02-14T02:50:56.778Z,102053.72
2019-02-14T02:53:25.977Z,102057.87
2019-02-14T02:55:55.250Z,102055.03
2019-02-14T02:58:24.630Z,102055.03
2019-02-14T03:00:53.832Z,102063.84
2019-02-14T03:03:23.075Z,102065.16
2019-02-14T03:05:52.491Z,102046.80
2019-02-14T03:08:21.684Z,102031.92
2019-02-14T03:10:50.921Z,102030.25
2019-02-14T03:13:20.563Z,102035.42
2019-02-14T03:15:49.750Z,102033.48
2019-02-14T03:18:18.962Z,102026.12
2019-02-14T03:20:48.279Z,102017.45
2019-02-14T03:23:17.559Z,102025.60
2019-02-14T03:25:46.633Z,102024.31
2019-02-14T03:28:15.967Z,102037.13
2019-02-14T03:30:45.120Z,102043.08
2019-02-14T03:33:14.356Z,102043.20
2019-02-14T03:35:43.634Z,102037.90
2019-02-14T03:38:12.861Z,102042.44
2019-02-14T03:40:42.234Z,102045.67
2019-02-14T03:43:11.647Z,102044.38
2019-02-14T03:45:40.840Z,102055.51
2019-02-14T03:48:10.078Z,102058.09
2019-02-14T03:50:39.340Z,102061.33
2019-02-14T03:53:08.532Z,102062.89
2019-02-14T03:55:37.747Z,102061.22
2019-02-14T03:58:07.346Z,102065.23
2019-02-14T04:00:36.560Z,102054.37
2019-02-14T04:03:05.800Z,102048.94
2019-02-14T04:05:35.102Z,102050.89
2019-02-14T04:08:04.289Z,102042.36
2019-02-14T04:10:33.499Z,102040.04
2019-02-14T04:13:02.883Z,102036.42
2019-02-14T04:15:32.230Z,102024.92
2019-02-14T04:18:01.544Z,102019.89
2019-02-14T04:20:30.804Z,102015.25
2019-02-14T04:22:59.996Z,102017.19
2019-02-14T04:25:29.269Z,102021.84
2019-02-14T04:27:58.844Z,102015.64
2019-02-14T04:30:28.025Z,102023.53
2019-02-14T04:32:57.250Z,102012.94
2019-02-14T04:35:26.646Z,102012.94
2019-02-14T04:37:55.843Z,102012.81
2019-02-14T04:40:33.262Z,102020.05
2019-02-14T04:42:56.182Z,102017.47
2019-02-14T04:45:25.357Z,102022.51
2019-02-14T04:47:54.593Z,102029.48
2019-02-14T04:50:23.984Z,102028.20
2019-02-14T04:52:53.195Z,102035.43
2019-02-14T04:55:22.428Z,102039.70
2019-02-14T04:57:51.992Z,102051.33
2019-02-14T05:00:21.353Z,102054.69
2019-02-14T05:02:50.576Z,102048.48
2019-02-14T05:05:19.928Z,102052.62
2019-02-14T05:07:49.148Z,102053.02
2019-02-14T05:10:18.376Z,102048.88
2019-02-14T05:12:47.777Z,102050.55
2019-02-14T05:15:16.961Z,102046.03
2019-02-14T05:17:46.620Z,102044.23
2019-02-14T05:20:15.987Z,102053.27
2019-02-14T05:22:45.166Z,102047.45
2019-02-14T05:25:14.375Z,102043.06
2019-02-14T05:27:43.886Z,102043.84
2019-02-14T05:30:13.531Z,102058.05
2019-02-14T05:32:42.775Z,102057.28
2019-02-14T05:35:12.054Z,102046.42
2019-02-14T05:37:41.250Z,102050.17
2019-02-14T05:40:10.589Z,102045.64
2019-02-14T05:42:39.892Z,102047.97
2019-02-14T05:45:09.863Z,102046.81
2019-02-14T05:47:39.091Z,102049.52
2019-02-14T05:50:09.530Z,102034.79
2019-02-14T05:52:38.759Z,102031.81
2019-02-14T05:55:09.193Z,102040.86
2019-02-14T05:57:41.770Z,102045.25
2019-02-14T06:00:12.570Z,102051.33
2019-02-14T06:02:41.867Z,102046.28
2019-02-14T06:05:11.269Z,102055.45
2019-02-14T06:07:40.452Z,102066.45
2019-02-14T06:10:09.805Z,102065.15
2019-02-14T06:12:39.268Z,102075.09
2019-02-14T06:15:09.495Z,102083.76
2019-02-14T06:17:38.697Z,102064.89
2019-02-14T06:20:08.968Z,102054.68
2019-02-14T06:22:38.157Z,102047.31
2019-02-14T06:25:07.626Z,102056.75
2019-02-14T06:27:37.119Z,102063.59
2019-02-14T06:30:09.832Z,102060.23
2019-02-14T06:32:39.191Z,102053.65
2019-02-14T06:35:09.143Z,102057.14
2019-02-14T06:37:38.371Z,102068.89
2019-02-14T06:40:09.055Z,102082.20
2019-02-14T06:42:38.271Z,102080.92
2019-02-14T06:45:09.190Z,102083.11
2019-02-14T06:47:38.828Z,102084.92
2019-02-14T06:50:08.298Z,102073.29
2019-02-14T06:52:37.483Z,102084.92
2019-02-14T06:55:06.863Z,102089.83
2019-02-14T06:57:36.057Z,102069.41
2019-02-14T07:00:05.900Z,102068.24
2019-02-14T07:02:35.400Z,102063.20
2019-02-14T07:05:04.822Z,102058.03
2019-02-14T07:07:34.053Z,102061.13
2019-02-14T07:10:03.447Z,102050.79
2019-02-14T07:12:32.693Z,102044.84
2019-02-14T07:15:01.945Z,102058.28
2019-02-14T07:17:31.838Z,102066.81
2019-02-14T07:20:01.027Z,102073.02
2019-02-14T07:22:32.965Z,102066.80
2019-02-14T07:25:02.264Z,102060.34
2019-02-14T07:27:31.491Z,102049.23
2019-02-14T07:30:01.100Z,102062.28
2019-02-14T07:32:30.702Z,102063.96
2019-02-14T07:35:00.029Z,102058.53
2019-02-14T07:37:29.613Z,102059.05
2019-02-14T07:39:58.847Z,102043.92
2019-02-14T07:42:28.035Z,102050.51
2019-02-14T07:44:57.680Z,102053.09
2019-02-14T07:47:26.901Z,102049.59
2019-02-14T07:49:56.079Z,102059.41
2019-02-14T07:52:25.517Z,102058.24
2019-02-14T07:54:54.850Z,102040.78
2019-02-14T07:57:24.014Z,102050.21
2019-02-14T07:59:53.497Z,102064.56
2019-02-14T08:02:22.746Z,102079.16
2019-02-14T08:04:51.928Z,102086.66
2019-02-14T08:07:21.200Z,102090.28
2019-02-14T08:09:50.567Z,102092.98
2019-02-14T08:12:19.764Z,102082.38
2019-02-14T08:14:49.193Z,102093.75
2019-02-14T08:17:18.418Z,102100.59
2019-02-14T08:19:47.595Z,102112.87
2019-02-14T08:22:16.889Z,102101.47
2019-02-14T08:24:46.241Z,102089.30
2019-02-14T08:27:17.497Z,102089.03
2019-02-14T08:29:46.941Z,102092.64
2019-02-14T08:32:16.217Z,102100.78
2019-02-14T08:34:45.553Z,102090.14
2019-02-14T08:37:14.943Z,102082.74
2019-02-14T08:39:44.180Z,102084.65
2019-02-14T08:42:13.365Z,102085.62
2019-02-14T08:44:42.944Z,102081.83
2019-02-14T08:47:12.152Z,102073.37
2019-02-14T08:49:41.345Z,102073.06
2019-02-14T08:52:10.944Z,102078.73
2019-02-14T08:54:40.216Z,102059.27
2019-02-14T08:57:09.413Z,102067.52
2019-02-14T08:59:38.697Z,102073.72
2019-02-14T09:02:07.927Z,102065.79
2019-02-14T09:04:37.148Z,102072.11
2019-02-14T09:07:06.744Z,102071.17
2019-02-14T09:09:35.995Z,102066.34
2019-02-14T09:12:05.175Z,102063.44
2019-02-14T09:14:34.747Z,102071.41
2019-02-14T09:17:03.987Z,102075.88
2019-02-14T09:19:33.211Z,102072.18
2019-02-14T09:22:02.503Z,102075.63
2019-02-14T09:24:31.743Z,102072.71
2019-02-14T09:27:01.012Z,102066.58
2019-02-14T09:29:30.647Z,102064.44
2019-02-14T09:31:59.894Z,102059.20
2019-02-14T09:34:29.074Z,102065.86
2019-02-14T09:36:58.856Z,102060.34
2019-02-14T09:39:28.183Z,102058.31
2019-02-14T09:41:57.372Z,102046.28
2019-02-14T09:44:27.262Z,102038.16
2019-02-14T09:46:56.495Z,102039.28
2019-02-14T09:49:25.655Z,102037.92
2019-02-14T09:51:55.182Z,102047.84
2019-02-14T09:54:24.786Z,102028.31
2019-02-14T09:56:54.050Z,102018.65
2019-02-14T09:59:23.487Z,102008.70
2019-02-14T10:01:52.734Z,102003.65
2019-02-14T10:04:21.904Z,102007.87
2019-02-14T10:06:52.657Z,102014.00
2019-02-14T10:09:22.106Z,102012.73
2019-02-14T10:11:51.306Z,102024.35
2019-02-14T10:14:20.485Z,102011.78
2019-02-14T10:16:50.794Z,102013.01
2019-02-14T10:19:19.978Z,102013.73
2019-02-14T10:21:49.151Z,102012.84
2019-02-14T10:24:19.235Z,102011.07
2019-02-14T10:26:48.460Z,102009.89
2019-02-14T10:29:17.763Z,102015.52
2019-02-14T10:31:47.444Z,102012.90
2019-02-14T10:34:16.650Z,102017.22
2019-02-14T10:36:45.846Z,102018.93
2019-02-14T10:39:15.263Z,102007.64
2019-02-14T10:41:45.984Z,102020.55
2019-02-14T10:44:15.179Z,102014.26
2019-02-14T10:46:44.533Z,102005.56
2019-02-14T10:49:13.736Z,101988.75
2019-02-14T10:51:42.906Z,101999.57
2019-02-14T10:54:12.220Z,101987.76
2019-02-14T10:56:41.398Z,101982.45
2019-02-14T10:59:11.179Z,101984.29
2019-02-14T11:01:40.691Z,101975.48
2019-02-14T11:04:09.884Z,101966.27
2019-02-14T11:06:39.147Z,101970.06
2019-02-14T11:09:10.782Z,101968.95
2019-02-14T11:11:41.403Z,101973.25
2019-02-14T11:14:10.806Z,101963.72
2019-02-14T11:16:41.504Z,101959.70
2019-02-14T11:19:10.706Z,101953.48
2019-02-14T11:21:39.942Z,101964.50
2019-02-14T11:24:09.397Z,101947.36
2019-02-14T11:26:38.590Z,101944.94
2019-02-14T11:29:07.845Z,101938.81
2019-02-14T11:31:37.499Z,101931.28
2019-02-14T11:34:06.699Z,101924.73
2019-02-14T11:36:35.882Z,101933.43
2019-02-14T11:39:09.327Z,101920.37
2019-02-14T11:41:38.547Z,101911.12
2019-02-14T11:44:07.739Z,101917.02
2019-02-14T11:46:38.628Z,101897.06
2019-02-14T11:49:07.876Z,101925.83
2019-02-14T11:51:37.299Z,101897.24
2019-02-14T11:54:06.830Z,101889.52
2019-02-14T11:56:36.026Z,101889.38
2019-02-14T11:59:05.223Z,101894.37
2019-02-14T12:01:34.546Z,101889.25
2019-02-14T12:04:04.911Z,101889.25
2019-02-14T12:06:34.159Z,101892.84
2019-02-14T12:09:04.775Z,101885.03
2019-02-14T12:11:33.965Z,101886.42
2019-02-14T12:14:03.155Z,101868.26
2019-02-14T12:16:32.496Z,101891.32
2019-02-14T12:19:01.883Z,101871.95
2019-02-14T12:21:31.069Z,101849.05
2019-02-14T12:24:00.284Z,101848.83
2019-02-14T12:26:29.569Z,101844.60
2019-02-14T12:28:58.752Z,101846.09
2019-02-14T12:31:27.980Z,101852.88
2019-02-14T12:33:57.577Z,101847.83
2019-02-14T12:36:26.935Z,101824.94
2019-02-14T12:38:56.163Z,101825.92
2019-02-14T12:41:25.501Z,101826.50
2019-02-14T12:43:54.702Z,101836.94
2019-02-14T12:46:24.001Z,101838.23
2019-02-14T12:48:53.288Z,101855.69
2019-02-14T12:51:22.494Z,101847.86
2019-02-14T12:53:51.709Z,101848.44
2019-02-14T12:56:21.021Z,101847.63
2019-02-14T12:58:50.210Z,101857.66
2019-02-14T13:01:19.445Z,101855.72
2019-02-14T13:03:48.718Z,101854.42
2019-02-14T13:06:17.915Z,101840.97
2019-02-14T13:08:47.171Z,101711.10
2019-02-14T13:11:16.477Z,101845.38
2019-02-14T13:13:49.662Z,101839.75
2019-02-14T13:16:16.640Z,101849.87
2019-02-14T13:18:45.998Z,101836.41
2019-02-14T13:21:15.292Z,101829.48
2019-02-14T13:23:45.082Z,101820.44
2019-02-14T13:26:14.612Z,101827.77
2019-02-14T13:28:43.820Z,101827.37
2019-02-14T13:31:13.117Z,101845.23
2019-02-14T13:33:42.621Z,101836.98
2019-02-14T13:36:11.952Z,101812.20
2019-02-14T13:38:41.218Z,101772.08
2019-02-14T13:41:10.728Z,101782.52
2019-02-14T13:43:39.918Z,101787.56
2019-02-14T13:46:09.147Z,101796.29
2019-02-14T13:48:38.722Z,101654.29
2019-02-14T13:51:07.923Z,101801.83
2019-02-14T13:53:39.326Z,101804.44
2019-02-14T13:56:08.564Z,101822.47
2019-02-14T13:58:37.738Z,101813.42
2019-02-14T14:01:07.394Z,101800.45
2019-02-14T14:03:36.682Z,101784.72
2019-02-14T14:06:05.966Z,101799.39
2019-02-14T14:08:35.495Z,101790.17
2019-02-14T14:11:04.816Z,101801.42
2019-02-14T14:13:34.026Z,101797.91
2019-02-14T14:16:03.710Z,101795.22
2019-02-14T14:18:33.086Z,101171.34
2019-02-14T14:21:02.403Z,101787.97
2019-02-14T14:23:31.903Z,101779.23
2019-02-14T14:26:01.294Z,101796.29
2019-02-14T14:28:30.489Z,101784.62
2019-02-14T14:30:59.762Z,101767.34
2019-02-14T14:33:30.755Z,101760.73
2019-02-14T14:36:00.021Z,101762.77
2019-02-14T14:38:29.458Z,101788.05
2019-02-14T14:40:58.750Z,101798.00
2019-02-14T14:43:47.877Z,101798.48
2019-02-14T14:46:24.203Z,101783.64
2019-02-14T14:48:53.418Z,101771.33
2019-02-14T14:51:22.729Z,101767.83
2019-02-14T14:53:52.158Z,101763.73
2019-02-14T14:56:21.387Z,101761.45
2019-02-14T14:58:50.576Z,101760.95
2019-02-14T15:01:19.962Z,101773.59
2019-02-14T15:03:49.174Z,101749.54
2019-02-14T15:06:18.368Z,101749.86
2019-02-14T15:08:47.863Z,101743.34
2019-02-14T15:11:17.098Z,101755.48
2019-02-14T15:13:46.277Z,101754.18
2019-02-14T15:16:15.656Z,101727.20
2019-02-14T15:18:44.895Z,101730.04
2019-02-14T15:21:14.101Z,101725.95
2019-02-14T15:23:43.555Z,101723.18
2019-02-14T15:26:12.810Z,101720.80
2019-02-14T15:28:42.000Z,101745.00
2019-02-14T15:31:11.451Z,101751.76
2019-02-14T15:33:40.665Z,101736.34
2019-02-14T15:36:10.153Z,101726.23
2019-02-14T15:38:39.575Z,101725.25
2019-02-14T15:41:09.008Z,101732.31
2019-02-14T15:43:38.198Z,101716.81
2019-02-14T15:46:07.874Z,101738.89
2019-02-14T15:48:37.078Z,101718.03
2019-02-14T15:51:06.275Z,101717.05
2019-02-14T15:53:35.769Z,101726.49
2019-02-14T15:56:05.455Z,101718.58
2019-02-14T15:58:36.111Z,101734.72
2019-02-14T16:01:05.798Z,101747.75
2019-02-14T16:03:35.131Z,101741.23
2019-02-14T16:06:06.083Z,101741.55
2019-02-14T16:08:35.554Z,101739.67
2019-02-14T16:11:05.068Z,101742.09
2019-02-14T16:13:34.471Z,101738.02
2019-02-14T16:16:03.667Z,101712.18
2019-02-14T16:18:32.990Z,101696.28
2019-02-14T16:21:03.744Z,101694.97
2019-02-14T16:23:34.301Z,101693.81
2019-02-14T16:26:03.934Z,101688.59
2019-02-14T16:28:33.210Z,101703.02
2019-02-14T16:31:02.409Z,101684.46
2019-02-14T16:33:31.838Z,101689.09
2019-02-14T16:36:01.027Z,101697.31
2019-02-14T16:38:30.254Z,101695.02
2019-02-14T16:40:59.594Z,101699.34
2019-02-14T16:43:28.910Z,101714.25
2019-02-14T16:45:58.124Z,101717.67
2019-02-14T16:48:27.699Z,101724.01
2019-02-14T16:50:56.917Z,101714.13
2019-02-14T16:53:26.190Z,101739.69
2019-02-14T16:56:01.881Z,101725.67
2019-02-14T16:58:26.495Z,101744.22
2019-02-14T17:00:55.708Z,101748.03
2019-02-14T17:03:25.073Z,101743.55
2019-02-14T17:05:54.305Z,101743.45
2019-02-14T17:08:23.507Z,101721.63
2019-02-14T17:10:53.192Z,101706.80
2019-02-14T17:13:22.380Z,101708.20
2019-02-14T17:15:51.576Z,101695.89
2019-02-14T17:18:20.885Z,101700.52
2019-02-14T17:20:50.111Z,101756.42
2019-02-14T17:23:19.295Z,101741.92
2019-02-14T17:25:48.772Z,101720.09
2019-02-14T17:28:17.979Z,101728.80
2019-02-14T17:30:47.581Z,101709.19
2019-02-14T17:33:17.079Z,101736.03
2019-02-14T17:35:46.356Z,101717.00
2019-02-14T17:38:15.559Z,101723.19
2019-02-14T17:40:46.407Z,101724.90
2019-02-14T17:43:15.995Z,101718.80
2019-02-14T17:45:45.482Z,101736.53
2019-02-14T17:48:14.787Z,101738.33
2019-02-14T17:50:45.213Z,101743.84
2019-02-14T17:53:14.519Z,101742.45
2019-02-14T17:55:43.759Z,101606.45
2019-02-14T17:58:13.001Z,101757.30
2019-02-14T18:00:42.860Z,101767.23
2019-02-14T18:03:12.600Z,101770.83
2019-02-14T18:05:41.784Z,101790.75
2019-02-14T18:08:11.080Z,101784.15
2019-02-14T18:10:41.130Z,101787.97
2019-02-14T18:13:10.353Z,101786.57
2019-02-14T18:15:39.650Z,101797.60
2019-02-14T18:18:08.930Z,101787.90
2019-02-14T18:20:38.131Z,101806.53
2019-02-14T18:23:07.534Z,101790.41
2019-02-14T18:25:36.797Z,101789.02
2019-02-14T18:28:06.036Z,101792.83
2019-02-14T18:30:35.613Z,101778.41
2019-02-14T18:33:04.977Z,101793.13
2019-02-14T18:35:34.198Z,101784.33
2019-02-14T18:38:05.113Z,101783.44
2019-02-14T18:40:34.437Z,101769.52
2019-02-14T18:43:03.672Z,101793.75
2019-02-14T18:45:32.959Z,101788.55
2019-02-14T18:48:02.332Z,101793.34
2019-02-14T18:50:31.522Z,101778.44
2019-02-14T18:53:01.027Z,101767.94
2019-02-14T18:55:30.251Z,101777.84
2019-02-14T18:57:59.451Z,101800.78
2019-02-14T19:00:28.822Z,101783.16
2019-02-14T19:02:58.053Z,101793.25
2019-02-14T19:05:27.360Z,101802.67
2019-02-14T19:07:56.824Z,101798.67
2019-02-14T19:10:26.050Z,101795.97
2019-02-14T19:12:55.251Z,101793.73
2019-02-14T19:15:24.621Z,101811.69
2019-02-14T19:17:53.851Z,101820.48
2019-02-14T19:20:23.049Z,101813.48
2019-02-14T19:22:52.541Z,101808.98
2019-02-14T19:25:22.133Z,101814.06
2019-02-14T19:27:51.363Z,101836.59
2019-02-14T19:30:20.954Z,101829.59
2019-02-14T19:32:50.220Z,101818.77
2019-02-14T19:35:23.191Z,101820.78
2019-02-14T19:37:50.550Z,101828.00
2019-02-14T19:40:19.796Z,101825.70
2019-02-14T19:42:49.292Z,101826.91
2019-02-14T19:45:18.703Z,101830.62
2019-02-14T19:47:47.938Z,101838.73
2019-02-14T19:50:18.228Z,101851.05
2019-02-14T19:52:47.577Z,101847.55
2019-02-14T19:55:16.958Z,101846.14
2019-02-14T19:57:46.278Z,101844.34
2019-02-14T20:00:15.595Z,101703.56
2019-02-14T20:02:44.921Z,101868.27
2019-02-14T20:05:14.117Z,101744.63
2019-02-14T20:07:43.525Z,101857.47
2019-02-14T20:10:12.894Z,101862.08
2019-02-14T20:12:42.121Z,101867.98
2019-02-14T20:15:13.380Z,101853.07
2019-02-14T20:17:42.736Z,101861.68
2019-02-14T20:20:11.977Z,101863.78
2019-02-14T20:22:41.538Z,101878.88
2019-02-14T20:25:12.591Z,101873.69
2019-02-14T20:27:41.882Z,101885.19
2019-02-14T20:30:11.079Z,101883.89
2019-02-14T20:32:40.306Z,101877.28
2019-02-14T20:35:09.737Z,101887.29
2019-02-14T20:37:39.000Z,101884.19
2019-02-14T20:40:08.525Z,101744.02
2019-02-14T20:42:37.919Z,101891.79
2019-02-14T20:45:08.772Z,101896.89
2019-02-14T20:47:38.120Z,101903.29
2019-02-14T20:50:08.492Z,101897.19
2019-02-14T20:52:37.811Z,101907.09
2019-02-14T20:55:08.609Z,101887.48
2019-02-14T20:57:38.101Z,101901.78
2019-02-14T21:00:14.804Z,101890.78
2019-02-14T21:02:44.081Z,101885.78
2019-02-14T21:05:13.283Z,101891.28
2019-02-14T21:07:42.504Z,101904.68
2019-02-14T21:10:11.875Z,101901.11
2019-02-14T21:12:41.130Z,101897.61
2019-02-14T21:15:10.389Z,101892.11
2019-02-14T21:17:39.779Z,101898.91
2019-02-14T21:20:09.225Z,101911.11
2019-02-14T21:22:38.564Z,101271.34
2019-02-14T21:25:08.123Z,101902.81
2019-02-14T21:27:37.269Z,101919.61
2019-02-14T21:30:06.857Z,101917.91
2019-02-14T21:32:36.189Z,101915.61
2019-02-14T21:35:05.445Z,101914.81
2019-02-14T21:37:34.721Z,101938.21
2019-02-14T21:40:04.373Z,101918.61
2019-02-14T21:42:33.572Z,101929.51
2019-02-14T21:45:02.870Z,101937.20
2019-02-14T21:47:32.214Z,101937.50
2019-02-14T21:50:01.517Z,101942.89
2019-02-14T21:52:30.798Z,101941.70
2019-02-14T21:55:00.643Z,101935.99
2019-02-14T21:57:29.981Z,101944.99
2019-02-14T21:59:59.200Z,101938.09
2019-02-14T22:02:28.611Z,101954.09
2019-02-14T22:04:57.856Z,101941.68
2019-02-14T22:07:27.077Z,101955.58
2019-02-14T22:09:56.430Z,101946.78
2019-02-14T22:12:40.007Z,101950.67
2019-02-14T22:14:56.585Z,101940.57
2019-02-14T22:17:25.956Z,101950.97
2019-02-14T22:19:55.144Z,101959.67
2019-02-14T22:22:24.366Z,101959.86
2019-02-14T22:24:54.525Z,101952.45
2019-02-14T22:27:23.818Z,101954.95
2019-02-14T22:29:53.046Z,101941.95
2019-02-14T22:32:22.456Z,101949.75
2019-02-14T22:34:51.649Z,101944.55
2019-02-14T22:37:20.900Z,101952.25
2019-02-14T22:39:50.183Z,101951.75
2019-02-14T22:42:19.380Z,101962.94
2019-02-14T22:44:48.871Z,101955.33
2019-02-14T22:47:18.150Z,101964.42
2019-02-14T22:49:47.540Z,101972.22
2019-02-14T22:52:16.833Z,101972.52
2019-02-14T22:54:46.262Z,101968.91
2019-02-14T22:57:15.535Z,101978.80
2019-02-14T22:59:44.785Z,101965.30
2019-02-14T23:02:14.148Z,101977.90
2019-02-14T23:04:43.363Z,101969.20
2019-02-14T23:07:12.605Z,101968.20
2019-02-14T23:09:42.055Z,101965.48
2019-02-14T23:12:11.259Z,101951.89
2019-02-14T23:14:40.495Z,101977.48
2019-02-14T23:17:09.780Z,101967.27
2019-02-14T23:19:38.960Z,101971.06
2019-02-14T23:22:08.200Z,101976.55
2019-02-14T23:24:37.561Z,101984.84
2019-02-14T23:27:06.761Z,101984.16
2019-02-14T23:29:35.995Z,101977.27
2019-02-14T23:32:05.274Z,101982.45
2019-02-14T23:34:34.469Z,101982.34
2019-02-14T23:37:03.706Z,101991.45
2019-02-14T23:39:32.977Z,101996.64
2019-02-14T23:42:02.158Z,101995.73
2019-02-14T23:44:31.447Z,101993.64
2019-02-14T23:47:00.842Z,101998.95
2019-02-14T23:49:30.027Z,101993.25
2019-02-14T23:51:59.329Z,101994.04
2019-02-14T23:54:28.657Z,101991.05
2019-02-14T23:56:57.846Z,101987.25
2019-02-14T23:59:27.206Z,101992.45
